Time;durP1;ratioP1;P1;durP2;ratioP2;P2;SDS_P1;SDS_P2;PMS_P1;PMS_P2;Temp;Humidity;BMP_temperature;BMP_pressure;BME280_temperature;BME280_humidity;BME280_pressure;Samples;Min_cycle;Max_cycle;Signal;HPM_P1;HPM_P2
2022/12/24 00:00:11;;;;;;;;;;;17.80;60.20;;;;;;4936087;28;1617;-70
2022/12/24 00:02:37;;;;;;;;;;;17.80;60.20;;;;;;4951875;28;842;-70
2022/12/24 00:05:02;;;;;;;;;;;17.80;60.20;;;;;;4957331;28;1248;-70
2022/12/24 00:07:28;;;;;;;;;;;17.80;60.20;;;;;;4954285;28;1163;-70
2022/12/24 00:09:53;;;;;;;;;;;17.80;60.20;;;;;;4953654;28;1292;-71
2022/12/24 00:12:19;;;;;;;;;;;17.80;60.20;;;;;;4956622;28;1387;-70
2022/12/24 00:14:44;;;;;;;;;;;17.80;60.30;;;;;;4954733;28;1973;-70
2022/12/24 00:17:09;;;;;;;;;;;17.80;60.30;;;;;;4957846;28;856;-70
2022/12/24 00:19:35;;;;;;;;;;;17.80;60.30;;;;;;4954117;28;1256;-70
2022/12/24 00:22:00;;;;;;;;;;;17.80;60.30;;;;;;4955048;28;966;-70
2022/12/24 00:24:26;;;;;;;;;;;17.80;60.30;;;;;;4953605;28;1038;-70
2022/12/24 00:26:51;;;;;;;;;;;17.70;60.20;;;;;;4954561;28;848;-69
2022/12/24 00:29:17;;;;;;;;;;;17.80;60.30;;;;;;4955904;28;1344;-69
2022/12/24 00:31:42;;;;;;;;;;;17.80;60.30;;;;;;4954364;28;884;-70
2022/12/24 00:34:08;;;;;;;;;;;17.70;60.20;;;;;;4953681;28;1907;-69
2022/12/24 00:36:33;;;;;;;;;;;17.70;60.30;;;;;;4959431;28;853;-69
2022/12/24 00:38:59;;;;;;;;;;;17.80;60.30;;;;;;4953050;28;1382;-70
2022/12/24 00:41:24;;;;;;;;;;;17.70;61.00;;;;;;4952598;28;1340;-70
2022/12/24 00:43:53;;;;;;;;;;;17.70;60.30;;;;;;4957936;28;908;-70
2022/12/24 00:46:18;;;;;;;;;;;17.80;60.30;;;;;;4956158;28;897;-70
2022/12/24 00:48:44;;;;;;;;;;;17.80;60.40;;;;;;4935362;28;1076;-71
2022/12/24 00:51:09;;;;;;;;;;;17.70;60.30;;;;;;4954015;28;1338;-71
2022/12/24 00:53:35;;;;;;;;;;;17.70;60.30;;;;;;4954057;28;1961;-71
2022/12/24 00:56:00;;;;;;;;;;;17.80;60.40;;;;;;4953437;28;931;-70
2022/12/24 00:58:26;;;;;;;;;;;17.70;60.30;;;;;;4951035;28;1374;-70
2022/12/24 01:00:51;;;;;;;;;;;17.70;60.30;;;;;;4952739;28;1276;-70
2022/12/24 01:03:16;;;;;;;;;;;17.70;60.30;;;;;;4949548;28;1249;-71
2022/12/24 01:05:42;;;;;;;;;;;17.70;60.30;;;;;;4953407;28;1046;-71
2022/12/24 01:08:07;;;;;;;;;;;17.70;60.30;;;;;;4956615;28;954;-70
2022/12/24 01:10:33;;;;;;;;;;;17.70;60.30;;;;;;4953449;28;1366;-71
2022/12/24 01:13:01;;;;;;;;;;;17.70;60.30;;;;;;4955653;28;887;-70
2022/12/24 01:15:27;;;;;;;;;;;17.70;60.40;;;;;;4954649;28;1899;-71
2022/12/24 01:17:52;;;;;;;;;;;17.70;60.40;;;;;;4950714;28;880;-71
2022/12/24 01:20:18;;;;;;;;;;;17.70;60.40;;;;;;4953387;28;1278;-70
2022/12/24 01:22:43;;;;;;;;;;;17.70;60.40;;;;;;4957130;28;828;-69
2022/12/24 01:25:09;;;;;;;;;;;17.70;60.40;;;;;;4953760;28;1002;-69
2022/12/24 01:27:34;;;;;;;;;;;17.70;60.40;;;;;;4955223;28;827;-69
2022/12/24 01:30:00;;;;;;;;;;;17.70;60.40;;;;;;4955679;28;1266;-69
2022/12/24 01:32:25;;;;;;;;;;;17.70;60.40;;;;;;4955182;28;859;-73
2022/12/24 01:34:51;;;;;;;;;;;17.70;60.40;;;;;;4955495;28;1902;-71
2022/12/24 01:37:16;;;;;;;;;;;17.70;60.40;;;;;;4954557;28;867;-71
2022/12/24 01:39:42;;;;;;;;;;;17.70;60.40;;;;;;4951795;28;1340;-72
2022/12/24 01:45:18;;;;;;;;;;;17.70;60.40;;;;;;4953371;28;816;-72
2022/12/24 01:47:43;;;;;;;;;;;17.70;60.40;;;;;;4953933;28;1069;-69
2022/12/24 01:50:13;;;;;;;;;;;17.70;60.50;;;;;;4953407;28;1132;-70
2022/12/24 01:52:38;;;;;;;;;;;17.70;60.40;;;;;;4951484;28;1058;-70
2022/12/24 01:55:11;;;;;;;;;;;17.70;60.50;;;;;;4945633;28;2013;-69
2022/12/24 01:57:38;;;;;;;;;;;17.70;60.50;;;;;;4945201;28;924;-69
2022/12/24 02:00:05;;;;;;;;;;;17.70;60.50;;;;;;4949027;28;1361;-69
2022/12/24 02:02:32;;;;;;;;;;;17.70;60.50;;;;;;4952343;28;852;-69
2022/12/24 02:05:17;;;;;;;;;;;17.70;60.50;;;;;;4954111;28;1247;-70
2022/12/24 02:07:43;;;;;;;;;;;17.70;60.50;;;;;;4950092;28;821;-71
2022/12/24 02:10:09;;;;;;;;;;;17.70;60.50;;;;;;4952985;28;1364;-70
2022/12/24 02:12:34;;;;;;;;;;;17.70;60.50;;;;;;4952110;28;880;-71
2022/12/24 02:15:00;;;;;;;;;;;17.70;60.50;;;;;;4947188;29;1946;-71
2022/12/24 02:17:30;;;;;;;;;;;17.70;60.50;;;;;;4946643;28;1075;-71
2022/12/24 02:20:16;;;;;;;;;;;17.70;60.50;;;;;;4946664;28;1346;-71
2022/12/24 02:23:00;;;;;;;;;;;17.70;60.50;;;;;;4951407;28;1277;-71
2022/12/24 02:25:44;;;;;;;;;;;17.70;60.50;;;;;;4949107;28;1570;-71
2022/12/24 02:28:12;;;;;;;;;;;17.70;60.50;;;;;;4951326;28;923;-70
2022/12/24 02:30:42;;;;;;;;;;;17.70;60.50;;;;;;4951986;28;1270;-70
2022/12/24 02:33:19;;;;;;;;;;;17.70;60.50;;;;;;4951780;28;916;-70
2022/12/24 02:35:44;;;;;;;;;;;17.70;60.60;;;;;;4951441;28;1906;-70
2022/12/24 02:38:10;;;;;;;;;;;17.70;60.60;;;;;;4954610;28;856;-70
2022/12/24 02:40:49;;;;;;;;;;;17.70;60.60;;;;;;4954041;28;1298;-71
2022/12/24 02:43:17;;;;;;;;;;;17.70;60.60;;;;;;4949573;28;884;-69
2022/12/24 02:45:44;;;;;;;;;;;17.70;60.60;;;;;;4952067;28;964;-70
2022/12/24 02:48:09;;;;;;;;;;;17.70;60.60;;;;;;4952601;28;1440;-69
2022/12/24 02:50:34;;;;;;;;;;;17.70;60.60;;;;;;4953803;28;1272;-70
2022/12/24 02:53:00;;;;;;;;;;;17.70;60.70;;;;;;4950909;28;809;-70
2022/12/24 02:55:35;;;;;;;;;;;17.70;60.70;;;;;;4950803;28;1902;-70
2022/12/24 02:58:03;;;;;;;;;;;17.70;60.60;;;;;;4949368;28;908;-70
2022/12/24 03:00:31;;;;;;;;;;;17.70;60.70;;;;;;4950437;28;1341;-70
2022/12/24 03:03:09;;;;;;;;;;;17.70;60.70;;;;;;4948459;28;861;-71
2022/12/24 03:05:48;;;;;;;;;;;17.70;60.70;;;;;;4952330;28;832;-70
2022/12/24 03:08:24;;;;;;;;;;;17.70;60.70;;;;;;4951817;28;938;-71
2022/12/24 03:11:19;;;;;;;;;;;17.70;60.70;;;;;;4956795;28;1354;-70
2022/12/24 03:13:44;;;;;;;;;;;17.70;60.70;;;;;;4951417;28;1903;-70
2022/12/24 03:16:12;;;;;;;;;;;17.70;60.70;;;;;;4955434;28;1045;-70
2022/12/24 03:18:38;;;;;;;;;;;17.60;60.60;;;;;;4957651;28;918;-71
2022/12/24 03:21:08;;;;;;;;;;;17.70;60.70;;;;;;4956044;28;1261;-71
2022/12/24 03:23:34;;;;;;;;;;;17.70;60.70;;;;;;4956061;28;1026;-71
2022/12/24 03:26:00;;;;;;;;;;;17.70;60.60;;;;;;4970025;28;1168;-69
2022/12/24 03:28:25;;;;;;;;;;;17.70;60.70;;;;;;4957932;28;908;-69
2022/12/24 03:30:51;;;;;;;;;;;17.70;60.70;;;;;;4956437;28;1370;-71
2022/12/24 03:33:16;;;;;;;;;;;17.70;60.70;;;;;;4952903;28;842;-70
2022/12/24 03:35:42;;;;;;;;;;;17.70;60.60;;;;;;4954738;28;1965;-71
2022/12/24 03:38:08;;;;;;;;;;;17.70;60.70;;;;;;4953302;28;1069;-71
2022/12/24 03:40:33;;;;;;;;;;;17.70;60.70;;;;;;4966424;28;1359;-70
2022/12/24 03:42:58;;;;;;;;;;;17.60;60.60;;;;;;4956425;28;1046;-70
2022/12/24 03:45:24;;;;;;;;;;;17.70;60.70;;;;;;4960280;28;924;-69
2022/12/24 03:47:49;;;;;;;;;;;17.70;60.70;;;;;;4954059;28;1015;-69
2022/12/24 03:50:15;;;;;;;;;;;17.60;60.60;;;;;;4951470;28;1284;-68
2022/12/24 03:52:40;;;;;;;;;;;17.70;60.70;;;;;;4955356;28;905;-69
2022/12/24 03:55:06;;;;;;;;;;;17.70;60.70;;;;;;4955388;28;1902;-69
2022/12/24 03:57:31;;;;;;;;;;;17.70;60.70;;;;;;4956103;28;880;-69
2022/12/24 03:59:57;;;;;;;;;;;17.70;60.70;;;;;;4954028;28;1257;-69
2022/12/24 04:02:22;;;;;;;;;;;17.70;60.70;;;;;;4961411;28;1260;-71
2022/12/24 04:04:48;;;;;;;;;;;17.70;60.70;;;;;;4955204;28;1175;-70
2022/12/24 04:07:13;;;;;;;;;;;17.70;60.70;;;;;;4960207;28;876;-70
2022/12/24 04:09:39;;;;;;;;;;;17.70;60.70;;;;;;4960644;28;1368;-69
2022/12/24 04:12:05;;;;;;;;;;;17.70;60.70;;;;;;4953183;28;1097;-70
2022/12/24 04:14:30;;;;;;;;;;;17.70;60.70;;;;;;4946119;28;1977;-70
2022/12/24 04:16:55;;;;;;;;;;;17.70;60.60;;;;;;4955278;28;1006;-70
2022/12/24 04:19:21;;;;;;;;;;;17.70;60.50;;;;;;4955860;28;1273;-70
2022/12/24 04:21:46;;;;;;;;;;;17.70;60.50;;;;;;4919906;28;1098784;-70
2022/12/24 04:24:12;;;;;;;;;;;17.70;60.40;;;;;;4957867;28;887;-70
2022/12/24 04:26:37;;;;;;;;;;;17.80;60.40;;;;;;4961780;28;1025;-70
2022/12/24 04:29:03;;;;;;;;;;;17.80;60.30;;;;;;4949464;29;780;-70
2022/12/24 04:31:28;;;;;;;;;;;17.80;60.20;;;;;;4955545;28;1202;-70
2022/12/24 04:33:54;;;;;;;;;;;17.80;60.10;;;;;;4955085;28;1978;-70
2022/12/24 04:36:19;;;;;;;;;;;17.80;60.10;;;;;;4955672;28;962;-70
2022/12/24 04:38:45;;;;;;;;;;;17.80;60.00;;;;;;4953709;28;1027;-70
2022/12/24 04:41:11;;;;;;;;;;;17.90;60.00;;;;;;4955261;28;1747;-70
2022/12/24 04:43:36;;;;;;;;;;;17.90;59.90;;;;;;4953409;28;1074;-70
2022/12/24 04:46:05;;;;;;;;;;;17.90;59.90;;;;;;4953879;28;801;-70
2022/12/24 04:48:31;;;;;;;;;;;17.90;59.80;;;;;;4954243;28;837;-70
2022/12/24 04:50:56;;;;;;;;;;;18.00;59.80;;;;;;4952731;28;1328;-70
2022/12/24 04:53:21;;;;;;;;;;;17.90;59.80;;;;;;4951155;28;1130;-70
2022/12/24 04:55:47;;;;;;;;;;;18.00;59.80;;;;;;4955701;28;1963;-70
2022/12/24 04:58:12;;;;;;;;;;;18.00;59.70;;;;;;4952027;28;840;-70
2022/12/24 05:00:38;;;;;;;;;;;18.00;59.70;;;;;;4954118;28;1323;-71
2022/12/24 05:03:04;;;;;;;;;;;18.00;59.70;;;;;;4951099;28;916;-70
2022/12/24 05:05:29;;;;;;;;;;;18.00;59.60;;;;;;4954573;28;1254;-70
2022/12/24 05:07:55;;;;;;;;;;;18.00;59.60;;;;;;4952555;28;879;-70
2022/12/24 05:10:21;;;;;;;;;;;18.00;60.20;;;;;;4951224;28;1352;-70
2022/12/24 05:12:46;;;;;;;;;;;18.00;59.50;;;;;;4955247;28;868;-70
2022/12/24 05:15:11;;;;;;;;;;;18.00;59.50;;;;;;4954412;28;1899;-70
2022/12/24 05:17:37;;;;;;;;;;;18.00;59.50;;;;;;4953494;28;970;-70
2022/12/24 05:20:02;;;;;;;;;;;18.10;59.50;;;;;;4954340;28;1240;-70
2022/12/24 05:27:56;;;;;;;;;;;18.10;59.50;;;;;;4955187;28;808;-70
2022/12/24 05:30:21;;;;;;;;;;;18.10;59.50;;;;;;4951235;28;1324;-70
2022/12/24 05:32:47;;;;;;;;;;;18.10;59.40;;;;;;4952235;28;1294;-70
2022/12/24 05:35:12;;;;;;;;;;;18.10;59.50;;;;;;4953425;28;1974;-70
2022/12/24 05:37:38;;;;;;;;;;;18.10;59.40;;;;;;4948873;28;1118;-70
2022/12/24 05:40:04;;;;;;;;;;;18.10;59.40;;;;;;4953982;28;1354;-70
2022/12/24 05:42:29;;;;;;;;;;;18.10;59.40;;;;;;4952136;28;1062;-70
2022/12/24 05:44:54;;;;;;;;;;;18.10;59.40;;;;;;4952481;28;843;-70
2022/12/24 05:47:20;;;;;;;;;;;18.10;59.40;;;;;;4951158;28;892;-70
2022/12/24 05:49:45;;;;;;;;;;;18.10;59.40;;;;;;4950288;28;1226;-70
2022/12/24 05:52:11;;;;;;;;;;;18.10;59.40;;;;;;4952636;28;860;-71
2022/12/24 05:54:36;;;;;;;;;;;18.10;59.40;;;;;;4952599;28;1908;-71
2022/12/24 05:57:02;;;;;;;;;;;18.10;59.40;;;;;;4951722;28;872;-72
2022/12/24 05:59:27;;;;;;;;;;;18.10;59.40;;;;;;4951404;28;1274;-71
2022/12/24 06:01:53;;;;;;;;;;;18.10;59.40;;;;;;4953064;28;951;-71
2022/12/24 06:04:18;;;;;;;;;;;18.10;59.40;;;;;;4951986;28;1037;-71
2022/12/24 06:06:43;;;;;;;;;;;18.10;59.40;;;;;;4951757;28;856;-70
2022/12/24 06:09:09;;;;;;;;;;;18.10;59.40;;;;;;4953655;28;935;-70
2022/12/24 06:11:34;;;;;;;;;;;18.10;59.40;;;;;;4952974;28;1316;-71
2022/12/24 06:14:00;;;;;;;;;;;18.10;59.40;;;;;;4954353;28;1898;-71
2022/12/24 06:16:25;;;;;;;;;;;18.10;59.40;;;;;;4957111;28;813;-71
2022/12/24 06:18:52;;;;;;;;;;;18.10;59.40;;;;;;4954941;28;948;-70
2022/12/24 06:21:17;;;;;;;;;;;18.10;59.40;;;;;;4953661;28;1470;-70
2022/12/24 06:23:43;;;;;;;;;;;18.10;59.40;;;;;;4953841;28;1066;-70
2022/12/24 06:26:10;;;;;;;;;;;18.10;59.40;;;;;;4952993;28;1054;-70
2022/12/24 06:28:36;;;;;;;;;;;18.10;59.40;;;;;;4949577;28;974;-70
2022/12/24 06:31:01;;;;;;;;;;;18.10;59.40;;;;;;4951412;28;1345;-70
2022/12/24 06:33:27;;;;;;;;;;;18.10;59.40;;;;;;4952622;28;869;-70
2022/12/24 06:35:52;;;;;;;;;;;18.10;59.40;;;;;;4951274;28;1915;-71
2022/12/24 06:38:18;;;;;;;;;;;18.10;59.50;;;;;;4954783;28;1327;-70
2022/12/24 06:40:44;;;;;;;;;;;18.10;59.50;;;;;;4954366;28;1202;-70
2022/12/24 06:43:09;;;;;;;;;;;18.10;59.50;;;;;;4954553;28;1051;-70
2022/12/24 06:45:35;;;;;;;;;;;18.10;60.10;;;;;;4952906;28;970;-70
2022/12/24 06:48:00;;;;;;;;;;;18.10;59.50;;;;;;4950604;28;1126;-70
2022/12/24 06:50:26;;;;;;;;;;;18.10;59.50;;;;;;4951063;28;1241;-70
2022/12/24 06:52:51;;;;;;;;;;;18.10;59.50;;;;;;4953039;28;1325;-70
2022/12/24 06:55:17;;;;;;;;;;;18.10;59.50;;;;;;4953129;28;1906;-70
2022/12/24 06:57:42;;;;;;;;;;;18.10;59.50;;;;;;4952678;28;817;-70
2022/12/24 07:00:08;;;;;;;;;;;18.10;59.50;;;;;;4950090;28;1289;-70
2022/12/24 07:02:34;;;;;;;;;;;18.10;59.50;;;;;;4951612;28;838;-70
2022/12/24 07:04:59;;;;;;;;;;;18.10;59.50;;;;;;4952177;28;1616;-70
2022/12/24 07:07:24;;;;;;;;;;;18.10;59.60;;;;;;4952713;28;813;-70
2022/12/24 07:09:50;;;;;;;;;;;18.10;59.50;;;;;;4953631;28;1331;-71
2022/12/24 07:12:15;;;;;;;;;;;18.10;59.50;;;;;;4953361;28;828;-70
2022/12/24 07:14:41;;;;;;;;;;;18.10;60.20;;;;;;4952596;28;1952;-70
2022/12/24 07:17:06;;;;;;;;;;;18.10;58.20;;;;;;4953699;28;868;-70
2022/12/24 07:19:33;;;;;;;;;;;18.10;57.70;;;;;;4953177;28;1335;-70
2022/12/24 07:21:58;;;;;;;;;;;18.10;57.60;;;;;;4954249;28;990;-70
2022/12/24 07:24:24;;;;;;;;;;;18.10;58.00;;;;;;4956989;28;857;-70
2022/12/24 07:26:49;;;;;;;;;;;18.10;57.80;;;;;;4951998;28;1545;-72
2022/12/24 07:29:15;;;;;;;;;;;18.10;57.90;;;;;;4948559;28;1919;-69
2022/12/24 07:31:40;;;;;;;;;;;18.10;58.00;;;;;;4948621;28;1284;-69
2022/12/24 07:34:06;;;;;;;;;;;18.10;58.10;;;;;;4955049;28;1910;-68
2022/12/24 07:36:31;;;;;;;;;;;18.10;58.20;;;;;;4957245;28;1044;-66
2022/12/24 07:38:57;;;;;;;;;;;18.10;58.30;;;;;;4953363;28;1488;-68
2022/12/24 07:41:22;;;;;;;;;;;18.10;58.30;;;;;;4952311;28;1338;-70
2022/12/24 07:43:48;;;;;;;;;;;18.10;58.40;;;;;;4952495;28;1415;-70
2022/12/24 07:46:13;;;;;;;;;;;18.10;58.50;;;;;;4950565;28;1302;-70
2022/12/24 07:48:39;;;;;;;;;;;18.10;58.50;;;;;;4951011;28;1407;-69
2022/12/24 07:51:04;;;;;;;;;;;18.10;58.50;;;;;;4950820;28;2193;-69
2022/12/24 07:53:30;;;;;;;;;;;18.10;58.60;;;;;;4938995;28;4331;-69
2022/12/24 07:55:55;;;;;;;;;;;18.10;58.60;;;;;;4952044;28;1973;-69
2022/12/24 07:58:21;;;;;;;;;;;18.10;58.60;;;;;;4954734;28;1371;-68
2022/12/24 08:00:46;;;;;;;;;;;18.10;58.60;;;;;;4953329;28;1721;-68
2022/12/24 08:03:15;;;;;;;;;;;18.10;58.70;;;;;;4951428;28;1379;-68
2022/12/24 08:05:41;;;;;;;;;;;18.10;58.70;;;;;;4953624;28;1493;-69
2022/12/24 08:08:06;;;;;;;;;;;18.10;58.70;;;;;;4954543;28;1592;-69
2022/12/24 08:10:31;;;;;;;;;;;18.10;58.70;;;;;;4955857;28;1602;-69
2022/12/24 08:12:57;;;;;;;;;;;18.10;58.70;;;;;;4958417;28;1469;-69
2022/12/24 08:15:22;;;;;;;;;;;18.10;58.70;;;;;;4953258;28;2050;-69
2022/12/24 08:17:48;;;;;;;;;;;18.10;58.80;;;;;;4955127;28;1519;-69
2022/12/24 08:20:16;;;;;;;;;;;18.10;58.70;;;;;;4955874;28;1408;-70
2022/12/24 08:22:41;;;;;;;;;;;18.10;58.80;;;;;;4956392;28;1675;-70
2022/12/24 08:25:07;;;;;;;;;;;18.10;58.80;;;;;;4952738;28;1631;-70
2022/12/24 08:27:33;;;;;;;;;;;18.10;58.80;;;;;;4954006;28;1448;-69
2022/12/24 08:29:58;;;;;;;;;;;18.10;59.30;;;;;;4953554;28;1411;-70
2022/12/24 08:32:24;;;;;;;;;;;18.10;58.80;;;;;;4953959;28;1316;-70
2022/12/24 08:34:49;;;;;;;;;;;18.10;58.80;;;;;;4953526;28;1984;-69
2022/12/24 08:37:15;;;;;;;;;;;18.10;58.80;;;;;;4952814;28;872;-69
2022/12/24 08:39:40;;;;;;;;;;;18.10;58.80;;;;;;4953292;28;1247;-69
2022/12/24 08:42:06;;;;;;;;;;;18.10;58.80;;;;;;4956515;28;1003;-69
2022/12/24 08:44:31;;;;;;;;;;;18.10;58.80;;;;;;4951495;28;873;-69
2022/12/24 08:46:56;;;;;;;;;;;18.10;58.80;;;;;;4949730;28;830;-68
2022/12/24 08:49:22;;;;;;;;;;;18.20;58.80;;;;;;4952746;28;1242;-69
2022/12/24 08:51:48;;;;;;;;;;;18.20;58.80;;;;;;4953663;28;906;-69
2022/12/24 08:54:13;;;;;;;;;;;18.20;58.80;;;;;;4952816;28;1998;-69
2022/12/24 08:56:39;;;;;;;;;;;18.20;58.80;;;;;;4953194;28;1638;-69
2022/12/24 08:59:04;;;;;;;;;;;18.20;58.80;;;;;;4952432;29;987;-69
2022/12/24 09:01:30;;;;;;;;;;;18.20;58.80;;;;;;4953329;28;1223;-69
2022/12/24 09:03:56;;;;;;;;;;;18.20;58.80;;;;;;4950664;28;1272;-69
2022/12/24 09:06:22;;;;;;;;;;;18.20;58.80;;;;;;4952547;28;1513;-68
2022/12/24 09:08:48;;;;;;;;;;;18.20;58.80;;;;;;4952666;28;813;-69
2022/12/24 09:11:14;;;;;;;;;;;18.20;58.80;;;;;;4949621;28;1315;-69
2022/12/24 09:13:40;;;;;;;;;;;18.20;58.80;;;;;;4954920;28;1566;-68
2022/12/24 09:16:05;;;;;;;;;;;18.20;58.80;;;;;;4956054;28;1907;-69
2022/12/24 09:18:31;;;;;;;;;;;18.20;58.80;;;;;;4954226;28;1042;-69
2022/12/24 09:21:03;;;;;;;;;;;18.20;58.80;;;;;;4947266;28;1295;-69
2022/12/24 09:23:29;;;;;;;;;;;18.20;58.80;;;;;;4951339;28;1539;-69
2022/12/24 09:25:54;;;;;;;;;;;18.20;58.80;;;;;;4953378;28;953;-69
2022/12/24 09:28:20;;;;;;;;;;;18.20;58.80;;;;;;4954028;28;1030;-68
2022/12/24 09:30:53;;;;;;;;;;;18.20;58.80;;;;;;4952503;28;1485;-66
2022/12/24 09:33:19;;;;;;;;;;;18.20;58.80;;;;;;4952337;28;1335;-68
2022/12/24 09:35:44;;;;;;;;;;;18.20;58.80;;;;;;4952754;28;1906;-68
2022/12/24 09:38:10;;;;;;;;;;;18.20;58.80;;;;;;4953695;28;1409;-68
2022/12/24 09:40:36;;;;;;;;;;;18.20;58.80;;;;;;4949531;28;1893;-68
2022/12/24 09:43:02;;;;;;;;;;;18.20;58.80;;;;;;4951209;28;1055;-69
2022/12/24 09:45:30;;;;;;;;;;;18.20;58.80;;;;;;4949564;28;965;-69
2022/12/24 09:48:00;;;;;;;;;;;18.20;58.80;;;;;;4954960;28;987;-68
2022/12/24 09:50:31;;;;;;;;;;;18.20;58.80;;;;;;4954654;28;1305;-70
2022/12/24 09:52:57;;;;;;;;;;;18.20;58.80;;;;;;4954728;28;829;-68
2022/12/24 09:55:27;;;;;;;;;;;18.20;58.80;;;;;;4954324;28;1910;-69
2022/12/24 09:57:53;;;;;;;;;;;18.20;58.80;;;;;;4954954;28;1042;-69
2022/12/24 10:00:28;;;;;;;;;;;18.20;58.80;;;;;;4950822;28;1394;-69
2022/12/24 10:02:54;;;;;;;;;;;18.20;58.80;;;;;;4949920;28;975;-69
2022/12/24 10:05:28;;;;;;;;;;;18.20;58.80;;;;;;4950306;28;1252;-69
2022/12/24 10:07:57;;;;;;;;;;;18.20;58.80;;;;;;4952921;28;833;-69
2022/12/24 10:10:26;;;;;;;;;;;18.20;58.80;;;;;;4952161;28;1307;-69
2022/12/24 10:12:51;;;;;;;;;;;18.20;58.80;;;;;;4954629;28;1206;-69
2022/12/24 10:15:26;;;;;;;;;;;18.20;59.40;;;;;;4952901;28;1902;-69
2022/12/24 10:18:05;;;;;;;;;;;18.20;58.80;;;;;;4954378;28;939;-68
2022/12/24 10:20:34;;;;;;;;;;;18.20;58.80;;;;;;4948827;28;1336;-69
2022/12/24 10:23:05;;;;;;;;;;;18.20;58.80;;;;;;4948359;28;828;-69
2022/12/24 10:25:36;;;;;;;;;;;18.20;58.90;;;;;;4952285;28;863;-68
2022/12/24 10:28:02;;;;;;;;;;;18.20;58.90;;;;;;4952754;28;1520;-69
2022/12/24 10:30:28;;;;;;;;;;;18.20;58.80;;;;;;4954713;28;1368;-69
2022/12/24 10:32:53;;;;;;;;;;;18.20;58.90;;;;;;4954603;28;841;-69
2022/12/24 10:35:19;;;;;;;;;;;18.20;58.80;;;;;;4953538;28;1972;-68
2022/12/24 10:37:47;;;;;;;;;;;18.20;58.80;;;;;;4952950;28;912;-69
2022/12/24 10:40:14;;;;;;;;;;;18.20;58.80;;;;;;4952085;28;1299;-68
2022/12/24 10:42:42;;;;;;;;;;;18.20;58.90;;;;;;4948934;28;832;-69
2022/12/24 10:45:09;;;;;;;;;;;18.20;58.90;;;;;;4954977;28;884;-69
2022/12/24 10:47:34;;;;;;;;;;;18.20;58.90;;;;;;4951975;28;931;-70
2022/12/24 10:50:00;;;;;;;;;;;18.20;58.90;;;;;;4950413;28;1295;-69
2022/12/24 10:52:31;;;;;;;;;;;18.20;58.90;;;;;;4952871;28;1658;-69
2022/12/24 10:55:14;;;;;;;;;;;18.20;58.90;;;;;;4952312;28;1972;-69
2022/12/24 10:57:40;;;;;;;;;;;18.20;58.90;;;;;;4954823;28;887;-69
2022/12/24 11:00:06;;;;;;;;;;;18.20;58.90;;;;;;4949839;28;1262;-69
2022/12/24 11:02:36;;;;;;;;;;;18.20;58.90;;;;;;4949070;28;1355;-69
2022/12/24 11:05:02;;;;;;;;;;;18.30;58.90;;;;;;4951478;28;934;-68
2022/12/24 11:07:28;;;;;;;;;;;18.20;58.90;;;;;;4956304;28;798;-69
2022/12/24 11:10:04;;;;;;;;;;;18.20;58.90;;;;;;4959264;28;1272;-69
2022/12/24 11:12:33;;;;;;;;;;;18.20;58.90;;;;;;4951235;28;853;-69
2022/12/24 11:15:06;;;;;;;;;;;18.30;58.90;;;;;;4950579;28;1910;-69
2022/12/24 11:17:32;;;;;;;;;;;18.20;58.90;;;;;;4952495;28;1149;-70
2022/12/24 11:19:57;;;;;;;;;;;18.20;58.90;;;;;;4952254;28;1260;-69
2022/12/24 11:22:26;;;;;;;;;;;18.20;58.80;;;;;;4951692;28;1182;-68
2022/12/24 11:25:03;;;;;;;;;;;18.30;58.90;;;;;;4954516;28;837;-70
2022/12/24 11:27:29;;;;;;;;;;;18.30;58.90;;;;;;4952086;28;907;-68
2022/12/24 11:30:13;;;;;;;;;;;18.30;58.90;;;;;;4954057;28;1278;-70
2022/12/24 11:32:38;;;;;;;;;;;18.30;58.90;;;;;;4956370;28;995;-70
2022/12/24 11:35:07;;;;;;;;;;;18.30;58.90;;;;;;4955803;28;1972;-69
2022/12/24 11:37:33;;;;;;;;;;;18.20;58.90;;;;;;4955801;28;801;-67
2022/12/24 11:39:59;;;;;;;;;;;18.30;59.00;;;;;;4953359;28;2097;-69
2022/12/24 11:42:30;;;;;;;;;;;18.30;58.90;;;;;;4954113;28;1506;-70
2022/12/24 11:44:56;;;;;;;;;;;18.30;58.90;;;;;;4956033;28;1323;-69
2022/12/24 11:47:34;;;;;;;;;;;18.30;58.90;;;;;;4958658;28;873;-70
2022/12/24 11:50:17;;;;;;;;;;;18.20;58.90;;;;;;4955637;28;1382;-70
2022/12/24 11:52:42;;;;;;;;;;;18.30;58.90;;;;;;4953004;28;1338;-70
2022/12/24 11:55:13;;;;;;;;;;;18.30;58.90;;;;;;4955258;28;1977;-69
2022/12/24 11:57:42;;;;;;;;;;;18.30;58.90;;;;;;4955755;28;857;-70
2022/12/24 12:00:09;;;;;;;;;;;18.30;58.90;;;;;;4952392;28;1276;-69
2022/12/24 12:02:36;;;;;;;;;;;18.30;58.90;;;;;;4954667;28;830;-69
2022/12/24 12:05:07;;;;;;;;;;;18.30;58.90;;;;;;4954094;28;974;-70
2022/12/24 12:07:33;;;;;;;;;;;18.30;58.90;;;;;;4954874;28;875;-69
2022/12/24 12:10:21;;;;;;;;;;;18.30;58.90;;;;;;4958819;28;1377;-69
2022/12/24 12:13:10;;;;;;;;;;;18.30;58.90;;;;;;4957555;28;1114;-69
2022/12/24 12:15:44;;;;;;;;;;;18.30;59.00;;;;;;4951707;28;1966;-70
2022/12/24 12:18:18;;;;;;;;;;;18.30;58.90;;;;;;4953984;28;900;-69
2022/12/24 12:20:43;;;;;;;;;;;18.30;58.90;;;;;;4950249;28;1245;-68
2022/12/24 12:23:11;;;;;;;;;;;18.30;59.00;;;;;;4954082;28;856;-70
2022/12/24 12:25:44;;;;;;;;;;;18.30;59.00;;;;;;4957695;28;844;-69
2022/12/24 12:28:33;;;;;;;;;;;18.30;59.00;;;;;;4956775;28;829;-70
2022/12/24 12:31:03;;;;;;;;;;;18.20;59.00;;;;;;4951777;28;1264;-70
2022/12/24 12:33:51;;;;;;;;;;;18.20;59.00;;;;;;4953020;28;886;-70
2022/12/24 12:36:18;;;;;;;;;;;18.20;59.10;;;;;;4946650;28;1910;-70
2022/12/24 12:38:43;;;;;;;;;;;18.20;59.10;;;;;;4952834;28;1417;-69
2022/12/24 12:41:15;;;;;;;;;;;18.20;59.10;;;;;;4954711;28;1725;-69
2022/12/24 12:43:46;;;;;;;;;;;18.20;59.10;;;;;;4951427;28;1282;-69
2022/12/24 12:46:24;;;;;;;;;;;18.20;59.20;;;;;;4955307;28;1006;-69
2022/12/24 12:48:52;;;;;;;;;;;18.20;59.10;;;;;;4955888;28;1393;-70
2022/12/24 12:51:23;;;;;;;;;;;18.20;59.20;;;;;;4953508;28;1338;-69
2022/12/24 12:53:51;;;;;;;;;;;18.20;59.20;;;;;;4950544;28;1027;-69
2022/12/24 12:56:17;;;;;;;;;;;18.20;59.20;;;;;;4951699;28;1970;-70
2022/12/24 12:58:44;;;;;;;;;;;18.20;59.20;;;;;;4951770;28;847;-70
2022/12/24 13:01:12;;;;;;;;;;;18.20;59.20;;;;;;4953253;28;1367;-70
2022/12/24 13:03:56;;;;;;;;;;;18.20;59.30;;;;;;4952808;28;1560;-69
2022/12/24 13:06:22;;;;;;;;;;;18.20;59.30;;;;;;4953889;28;895;-70
2022/12/24 13:09:06;;;;;;;;;;;18.20;59.30;;;;;;4952731;28;824;-70
2022/12/24 13:11:35;;;;;;;;;;;18.20;60.60;;;;;;4950324;28;1359;-69
2022/12/24 13:14:14;;;;;;;;;;;18.30;61.50;;;;;;4953256;28;1509;-70
2022/12/24 13:16:39;;;;;;;;;;;18.30;61.70;;;;;;4967059;28;1429;-69
2022/12/24 13:19:11;;;;;;;;;;;18.30;60.30;;;;;;4952773;28;1432;-70
2022/12/24 13:21:36;;;;;;;;;;;18.30;60.00;;;;;;4955757;28;1295;-70
2022/12/24 13:24:18;;;;;;;;;;;18.30;59.80;;;;;;4952725;28;1713;-70
2022/12/24 13:27:00;;;;;;;;;;;18.30;59.80;;;;;;4954413;28;1355;-70
2022/12/24 13:29:30;;;;;;;;;;;18.30;59.70;;;;;;4956231;28;1400;-70
2022/12/24 13:32:14;;;;;;;;;;;18.30;60.40;;;;;;4972160;28;1417;-70
2022/12/24 13:34:39;;;;;;;;;;;18.30;60.10;;;;;;4953026;28;1910;-70
2022/12/24 13:37:14;;;;;;;;;;;18.30;59.90;;;;;;4967218;28;1457;-71
2022/12/24 13:40:06;;;;;;;;;;;18.30;59.80;;;;;;4953473;28;1298;-69
2022/12/24 13:42:50;;;;;;;;;;;18.30;59.80;;;;;;4952705;28;1536;-70
2022/12/24 13:45:28;;;;;;;;;;;18.30;59.70;;;;;;4953092;28;1298;-70
2022/12/24 13:47:54;;;;;;;;;;;18.30;59.70;;;;;;4952405;28;1324;-68
2022/12/24 13:50:21;;;;;;;;;;;18.30;59.70;;;;;;4953249;28;1325;-68
2022/12/24 13:52:53;;;;;;;;;;;18.30;59.70;;;;;;4954372;28;1039;-69
2022/12/24 13:55:18;;;;;;;;;;;18.30;59.60;;;;;;4950728;28;2292;-69
2022/12/24 13:57:53;;;;;;;;;;;18.30;59.70;;;;;;4953244;28;1216;-69
2022/12/24 14:00:37;;;;;;;;;;;18.30;59.60;;;;;;4951977;28;1390;-69
2022/12/24 14:03:04;;;;;;;;;;;18.30;59.60;;;;;;4952500;28;1394;-70
2022/12/24 14:05:37;;;;;;;;;;;18.40;60.70;;;;;;4950183;28;1286;-70
2022/12/24 14:08:04;;;;;;;;;;;18.40;60.20;;;;;;4950234;28;2120;-71
2022/12/24 14:10:34;;;;;;;;;;;18.40;59.80;;;;;;4952726;28;1495;-69
2022/12/24 14:13:00;;;;;;;;;;;18.40;59.70;;;;;;4950984;28;1159;-71
2022/12/24 14:15:44;;;;;;;;;;;18.40;59.70;;;;;;4950827;28;1898;-71
2022/12/24 14:18:10;;;;;;;;;;;18.40;59.70;;;;;;4954666;28;912;-70
2022/12/24 14:20:35;;;;;;;;;;;18.40;59.70;;;;;;4951099;28;1305;-71
2022/12/24 14:23:01;;;;;;;;;;;18.40;59.60;;;;;;4956045;28;939;-70
2022/12/24 14:25:26;;;;;;;;;;;18.40;59.60;;;;;;4948827;28;875;-70
2022/12/24 14:27:57;;;;;;;;;;;18.30;59.60;;;;;;4945450;28;1619;-70
2022/12/24 14:30:23;;;;;;;;;;;18.30;59.60;;;;;;4951102;28;1287;-69
2022/12/24 14:32:49;;;;;;;;;;;18.40;59.60;;;;;;4952257;28;859;-70
2022/12/24 14:35:15;;;;;;;;;;;18.40;59.60;;;;;;4950500;28;1911;-70
2022/12/24 14:37:45;;;;;;;;;;;18.30;59.60;;;;;;4950712;28;1194;-69
2022/12/24 14:40:14;;;;;;;;;;;18.40;59.60;;;;;;4951794;28;1295;-70
2022/12/24 14:42:57;;;;;;;;;;;18.30;59.50;;;;;;4952860;28;872;-69
2022/12/24 14:45:33;;;;;;;;;;;18.30;59.60;;;;;;4951370;28;839;-70